Pagina principală
METAR-TAF:

METAR-TAF

Aeroporturi :

Sunlight Mountain, Colorado, Statele Unite ale Americii

Latitudine: 39-25-32N, longitudine: 107-22-45W, elevație: 3232 m

Observații meteo curente

Raportul a fost făcut în urmă cu 35 de minute, la 09:35 UTC
Vânt 8 kt de la Sud-vest
Temperatură 10°C
Umiditate 46%
Presiune 1035 hPa
Vizibilitate: 16.1 km
Nori împrăștiați la o înălțime de 6000 picior
Nori împrăștiați la o înălțime de 6500 picior
Nori împrăștiați la o înălțime de 12000 picior

METAR: K5SM 140935Z AUTO 23008KT 10SM SCT060 SCT065 SCT120 10/M01 A3056 RMK AO2

Ora: 04:10 (10:10 UTC)


TAF: lipsă

Observații și prognoze meteo pentru peste 4.000 de aeroporturi (rapoarte METAR și TAF).

Stațiile disponibile sunt reprezentate pe hartă prin puncte galbene și roșii.

Țineți indicatorul mouse-ului pe punctul dorit pentru a vedea denumirea stației.

Apoi, faceți clic pentru a vedea observațiile și prognozele meteorologice.

Pentru a schimba harta: Pentru mărire, faceți clic pe butoanele verzi cu cruce neagră; pentru micșorare, pe butonul verde cu o liniuță; pentru hărți învecinate, pe săgețile verzi.


METAR-TAF: